sensor_id;sensor_type;location;lat;lon;timestamp;P1;durP1;ratioP1;P2;durP2;ratioP2
21215;SDS011;10765;50.954;5.322;2023-05-29T00:00:58;8.60;;;6.00;;
21215;SDS011;10765;50.954;5.322;2023-05-29T00:03:27;8.50;;;6.03;;
21215;SDS011;10765;50.954;5.322;2023-05-29T00:05:57;7.70;;;6.03;;
21215;SDS011;10765;50.954;5.322;2023-05-29T00:08:26;9.03;;;5.67;;
21215;SDS011;10765;50.954;5.322;2023-05-29T00:10:53;8.27;;;5.80;;
21215;SDS011;10765;50.954;5.322;2023-05-29T00:13:20;9.30;;;5.90;;
21215;SDS011;10765;50.954;5.322;2023-05-29T00:15:47;8.27;;;5.77;;
21215;SDS011;10765;50.954;5.322;2023-05-29T00:18:14;9.93;;;6.40;;
21215;SDS011;10765;50.954;5.322;2023-05-29T00:20:42;8.77;;;6.07;;
21215;SDS011;10765;50.954;5.322;2023-05-29T00:23:09;8.80;;;6.03;;
21215;SDS011;10765;50.954;5.322;2023-05-29T00:25:36;8.43;;;6.33;;
21215;SDS011;10765;50.954;5.322;2023-05-29T00:28:02;9.97;;;6.57;;
21215;SDS011;10765;50.954;5.322;2023-05-29T00:30:31;8.53;;;6.70;;
21215;SDS011;10765;50.954;5.322;2023-05-29T00:32:57;11.53;;;6.03;;
21215;SDS011;10765;50.954;5.322;2023-05-29T00:35:25;8.50;;;6.43;;
21215;SDS011;10765;50.954;5.322;2023-05-29T00:37:53;11.50;;;6.20;;
21215;SDS011;10765;50.954;5.322;2023-05-29T00:40:20;8.97;;;6.40;;
21215;SDS011;10765;50.954;5.322;2023-05-29T00:42:47;8.40;;;6.20;;
21215;SDS011;10765;50.954;5.322;2023-05-29T00:45:14;8.57;;;6.07;;
21215;SDS011;10765;50.954;5.322;2023-05-29T00:47:41;9.67;;;6.40;;
21215;SDS011;10765;50.954;5.322;2023-05-29T00:50:09;7.50;;;6.00;;
21215;SDS011;10765;50.954;5.322;2023-05-29T00:52:38;9.13;;;6.60;;
21215;SDS011;10765;50.954;5.322;2023-05-29T00:55:08;11.13;;;6.13;;
21215;SDS011;10765;50.954;5.322;2023-05-29T00:57:36;11.03;;;6.80;;
21215;SDS011;10765;50.954;5.322;2023-05-29T01:00:04;8.40;;;6.53;;
21215;SDS011;10765;50.954;5.322;2023-05-29T01:02:33;11.10;;;7.17;;
21215;SDS011;10765;50.954;5.322;2023-05-29T01:05:02;8.13;;;7.27;;
21215;SDS011;10765;50.954;5.322;2023-05-29T01:07:29;12.00;;;7.40;;
21215;SDS011;10765;50.954;5.322;2023-05-29T01:09:56;9.43;;;7.57;;
21215;SDS011;10765;50.954;5.322;2023-05-29T01:12:25;9.33;;;7.47;;
21215;SDS011;10765;50.954;5.322;2023-05-29T01:15:04;12.50;;;7.53;;
21215;SDS011;10765;50.954;5.322;2023-05-29T01:17:42;10.03;;;7.20;;
21215;SDS011;10765;50.954;5.322;2023-05-29T01:20:23;11.00;;;7.63;;
21215;SDS011;10765;50.954;5.322;2023-05-29T01:23:01;9.60;;;7.60;;
21215;SDS011;10765;50.954;5.322;2023-05-29T01:25:40;11.90;;;7.83;;
21215;SDS011;10765;50.954;5.322;2023-05-29T01:28:25;9.33;;;7.60;;
21215;SDS011;10765;50.954;5.322;2023-05-29T01:30:55;13.37;;;8.17;;
21215;SDS011;10765;50.954;5.322;2023-05-29T01:33:25;11.27;;;8.20;;
21215;SDS011;10765;50.954;5.322;2023-05-29T01:35:53;12.20;;;8.00;;
21215;SDS011;10765;50.954;5.322;2023-05-29T01:38:19;11.60;;;8.80;;
21215;SDS011;10765;50.954;5.322;2023-05-29T01:40:46;10.97;;;7.43;;
21215;SDS011;10765;50.954;5.322;2023-05-29T01:43:14;13.00;;;8.77;;
21215;SDS011;10765;50.954;5.322;2023-05-29T01:45:42;12.80;;;9.00;;
21215;SDS011;10765;50.954;5.322;2023-05-29T01:48:10;14.83;;;8.70;;
21215;SDS011;10765;50.954;5.322;2023-05-29T01:50:37;12.93;;;8.93;;
21215;SDS011;10765;50.954;5.322;2023-05-29T01:53:04;14.00;;;9.17;;
21215;SDS011;10765;50.954;5.322;2023-05-29T01:55:31;12.73;;;8.73;;
21215;SDS011;10765;50.954;5.322;2023-05-29T01:57:58;12.17;;;9.53;;
21215;SDS011;10765;50.954;5.322;2023-05-29T02:00:26;12.07;;;8.63;;
21215;SDS011;10765;50.954;5.322;2023-05-29T02:02:56;13.57;;;9.77;;
21215;SDS011;10765;50.954;5.322;2023-05-29T02:05:22;13.17;;;9.00;;
21215;SDS011;10765;50.954;5.322;2023-05-29T02:07:49;11.93;;;8.67;;
21215;SDS011;10765;50.954;5.322;2023-05-29T02:10:16;13.73;;;9.10;;
21215;SDS011;10765;50.954;5.322;2023-05-29T02:12:43;12.50;;;8.73;;
21215;SDS011;10765;50.954;5.322;2023-05-29T02:15:10;12.60;;;8.93;;
21215;SDS011;10765;50.954;5.322;2023-05-29T02:17:37;13.77;;;8.37;;
21215;SDS011;10765;50.954;5.322;2023-05-29T02:20:06;13.70;;;8.83;;
21215;SDS011;10765;50.954;5.322;2023-05-29T02:22:34;14.07;;;8.20;;
21215;SDS011;10765;50.954;5.322;2023-05-29T02:25:01;14.60;;;8.93;;
21215;SDS011;10765;50.954;5.322;2023-05-29T02:27:29;10.87;;;8.57;;
21215;SDS011;10765;50.954;5.322;2023-05-29T02:29:55;12.13;;;8.50;;
21215;SDS011;10765;50.954;5.322;2023-05-29T02:32:23;15.00;;;8.10;;
21215;SDS011;10765;50.954;5.322;2023-05-29T02:34:51;13.60;;;7.97;;
21215;SDS011;10765;50.954;5.322;2023-05-29T02:37:19;13.23;;;7.80;;
21215;SDS011;10765;50.954;5.322;2023-05-29T02:39:50;13.53;;;7.50;;
21215;SDS011;10765;50.954;5.322;2023-05-29T02:42:17;9.60;;;6.90;;
21215;SDS011;10765;50.954;5.322;2023-05-29T02:44:44;12.60;;;6.93;;
21215;SDS011;10765;50.954;5.322;2023-05-29T02:47:11;13.33;;;6.47;;
21215;SDS011;10765;50.954;5.322;2023-05-29T02:49:37;13.67;;;6.23;;
21215;SDS011;10765;50.954;5.322;2023-05-29T02:52:05;13.73;;;6.40;;
21215;SDS011;10765;50.954;5.322;2023-05-29T02:54:33;12.80;;;5.77;;
21215;SDS011;10765;50.954;5.322;2023-05-29T02:57:00;10.17;;;5.40;;
21215;SDS011;10765;50.954;5.322;2023-05-29T02:59:27;12.70;;;5.67;;
21215;SDS011;10765;50.954;5.322;2023-05-29T03:01:54;16.13;;;5.37;;
21215;SDS011;10765;50.954;5.322;2023-05-29T03:04:21;12.07;;;5.57;;
21215;SDS011;10765;50.954;5.322;2023-05-29T03:06:47;11.67;;;5.10;;
21215;SDS011;10765;50.954;5.322;2023-05-29T03:09:15;13.77;;;5.30;;
21215;SDS011;10765;50.954;5.322;2023-05-29T03:11:43;13.00;;;5.33;;
21215;SDS011;10765;50.954;5.322;2023-05-29T03:14:12;12.83;;;5.13;;
21215;SDS011;10765;50.954;5.322;2023-05-29T03:16:39;13.17;;;5.20;;
21215;SDS011;10765;50.954;5.322;2023-05-29T03:19:06;16.03;;;4.93;;
21215;SDS011;10765;50.954;5.322;2023-05-29T03:21:33;8.50;;;4.67;;
21215;SDS011;10765;50.954;5.322;2023-05-29T03:24:00;14.07;;;5.10;;
21215;SDS011;10765;50.954;5.322;2023-05-29T03:26:28;9.30;;;4.30;;
21215;SDS011;10765;50.954;5.322;2023-05-29T03:28:56;11.93;;;4.47;;
21215;SDS011;10765;50.954;5.322;2023-05-29T03:31:23;11.37;;;4.83;;
21215;SDS011;10765;50.954;5.322;2023-05-29T03:33:50;11.63;;;4.70;;
21215;SDS011;10765;50.954;5.322;2023-05-29T03:36:17;13.13;;;4.67;;
21215;SDS011;10765;50.954;5.322;2023-05-29T03:38:44;8.70;;;4.27;;
21215;SDS011;10765;50.954;5.322;2023-05-29T03:41:11;14.00;;;4.73;;
21215;SDS011;10765;50.954;5.322;2023-05-29T03:43:38;10.57;;;3.83;;
21215;SDS011;10765;50.954;5.322;2023-05-29T03:46:06;10.97;;;4.27;;
21215;SDS011;10765;50.954;5.322;2023-05-29T03:48:33;10.33;;;3.90;;
21215;SDS011;10765;50.954;5.322;2023-05-29T03:51:00;10.70;;;4.60;;
21215;SDS011;10765;50.954;5.322;2023-05-29T03:53:27;9.97;;;3.83;;
21215;SDS011;10765;50.954;5.322;2023-05-29T03:55:54;9.20;;;3.60;;
21215;SDS011;10765;50.954;5.322;2023-05-29T03:58:21;11.27;;;4.73;;
21215;SDS011;10765;50.954;5.322;2023-05-29T04:00:48;11.87;;;4.23;;
21215;SDS011;10765;50.954;5.322;2023-05-29T04:03:16;12.53;;;4.00;;
21215;SDS011;10765;50.954;5.322;2023-05-29T04:05:43;10.87;;;3.87;;
21215;SDS011;10765;50.954;5.322;2023-05-29T04:08:10;12.83;;;4.27;;
21215;SDS011;10765;50.954;5.322;2023-05-29T04:10:38;10.67;;;3.87;;
21215;SDS011;10765;50.954;5.322;2023-05-29T04:13:05;9.63;;;3.57;;
21215;SDS011;10765;50.954;5.322;2023-05-29T04:15:32;11.03;;;3.60;;
21215;SDS011;10765;50.954;5.322;2023-05-29T04:17:59;12.87;;;5.60;;
21215;SDS011;10765;50.954;5.322;2023-05-29T04:20:27;11.47;;;4.10;;
21215;SDS011;10765;50.954;5.322;2023-05-29T04:22:54;14.40;;;8.17;;
21215;SDS011;10765;50.954;5.322;2023-05-29T04:25:21;12.53;;;5.27;;
21215;SDS011;10765;50.954;5.322;2023-05-29T04:27:48;11.20;;;4.53;;
21215;SDS011;10765;50.954;5.322;2023-05-29T04:30:16;11.33;;;4.47;;
21215;SDS011;10765;50.954;5.322;2023-05-29T04:32:43;11.47;;;4.40;;
21215;SDS011;10765;50.954;5.322;2023-05-29T04:35:10;11.63;;;3.83;;
21215;SDS011;10765;50.954;5.322;2023-05-29T04:37:39;9.83;;;3.80;;
21215;SDS011;10765;50.954;5.322;2023-05-29T04:40:07;10.57;;;3.60;;
21215;SDS011;10765;50.954;5.322;2023-05-29T04:42:35;10.23;;;3.50;;
21215;SDS011;10765;50.954;5.322;2023-05-29T04:45:02;9.37;;;3.60;;
21215;SDS011;10765;50.954;5.322;2023-05-29T04:47:30;11.27;;;3.60;;
21215;SDS011;10765;50.954;5.322;2023-05-29T04:49:58;12.63;;;3.93;;
21215;SDS011;10765;50.954;5.322;2023-05-29T04:52:25;9.23;;;3.40;;
21215;SDS011;10765;50.954;5.322;2023-05-29T04:54:53;12.37;;;3.30;;
21215;SDS011;10765;50.954;5.322;2023-05-29T04:57:21;11.20;;;3.40;;
21215;SDS011;10765;50.954;5.322;2023-05-29T04:59:48;10.03;;;3.53;;
21215;SDS011;10765;50.954;5.322;2023-05-29T05:02:15;10.30;;;3.23;;
21215;SDS011;10765;50.954;5.322;2023-05-29T05:04:42;8.67;;;3.13;;
21215;SDS011;10765;50.954;5.322;2023-05-29T05:07:10;9.27;;;3.30;;
21215;SDS011;10765;50.954;5.322;2023-05-29T05:09:38;10.17;;;3.17;;
21215;SDS011;10765;50.954;5.322;2023-05-29T05:12:06;11.17;;;3.70;;
21215;SDS011;10765;50.954;5.322;2023-05-29T05:14:33;8.40;;;3.20;;
21215;SDS011;10765;50.954;5.322;2023-05-29T05:17:00;8.60;;;3.30;;
21215;SDS011;10765;50.954;5.322;2023-05-29T05:19:27;11.57;;;3.87;;
21215;SDS011;10765;50.954;5.322;2023-05-29T05:21:55;11.70;;;3.90;;
21215;SDS011;10765;50.954;5.322;2023-05-29T05:24:22;11.63;;;3.40;;
21215;SDS011;10765;50.954;5.322;2023-05-29T05:26:49;9.13;;;2.93;;
21215;SDS011;10765;50.954;5.322;2023-05-29T05:29:17;9.50;;;3.70;;
21215;SDS011;10765;50.954;5.322;2023-05-29T05:31:44;11.67;;;3.20;;
21215;SDS011;10765;50.954;5.322;2023-05-29T05:34:11;8.03;;;2.93;;
21215;SDS011;10765;50.954;5.322;2023-05-29T05:36:38;10.57;;;3.87;;
21215;SDS011;10765;50.954;5.322;2023-05-29T05:39:05;10.07;;;3.27;;
21215;SDS011;10765;50.954;5.322;2023-05-29T05:41:32;10.27;;;3.90;;
21215;SDS011;10765;50.954;5.322;2023-05-29T05:43:59;11.33;;;3.30;;
21215;SDS011;10765;50.954;5.322;2023-05-29T05:46:27;11.50;;;3.40;;
21215;SDS011;10765;50.954;5.322;2023-05-29T05:48:54;10.27;;;3.67;;
21215;SDS011;10765;50.954;5.322;2023-05-29T05:51:22;10.23;;;3.77;;
21215;SDS011;10765;50.954;5.322;2023-05-29T05:53:49;12.93;;;4.10;;
21215;SDS011;10765;50.954;5.322;2023-05-29T05:56:16;10.43;;;3.63;;
21215;SDS011;10765;50.954;5.322;2023-05-29T05:58:43;8.97;;;3.40;;
21215;SDS011;10765;50.954;5.322;2023-05-29T06:01:10;11.60;;;4.20;;
21215;SDS011;10765;50.954;5.322;2023-05-29T06:03:39;11.83;;;3.60;;
21215;SDS011;10765;50.954;5.322;2023-05-29T06:06:06;14.20;;;4.00;;
21215;SDS011;10765;50.954;5.322;2023-05-29T06:08:33;11.53;;;4.10;;
21215;SDS011;10765;50.954;5.322;2023-05-29T06:11:00;8.20;;;3.53;;
21215;SDS011;10765;50.954;5.322;2023-05-29T06:13:28;12.97;;;3.70;;
21215;SDS011;10765;50.954;5.322;2023-05-29T06:15:55;11.93;;;3.53;;
21215;SDS011;10765;50.954;5.322;2023-05-29T06:18:22;7.53;;;3.30;;
21215;SDS011;10765;50.954;5.322;2023-05-29T06:20:50;11.57;;;3.77;;
21215;SDS011;10765;50.954;5.322;2023-05-29T06:23:17;11.37;;;3.70;;
21215;SDS011;10765;50.954;5.322;2023-05-29T06:25:44;9.50;;;3.47;;
21215;SDS011;10765;50.954;5.322;2023-05-29T06:28:11;8.80;;;3.60;;
21215;SDS011;10765;50.954;5.322;2023-05-29T06:30:38;7.60;;;3.00;;
21215;SDS011;10765;50.954;5.322;2023-05-29T06:33:05;7.90;;;2.90;;
21215;SDS011;10765;50.954;5.322;2023-05-29T06:35:32;11.10;;;3.73;;
21215;SDS011;10765;50.954;5.322;2023-05-29T06:38:00;7.07;;;3.10;;
21215;SDS011;10765;50.954;5.322;2023-05-29T06:40:27;10.57;;;3.60;;
21215;SDS011;10765;50.954;5.322;2023-05-29T06:42:54;8.83;;;3.47;;
21215;SDS011;10765;50.954;5.322;2023-05-29T06:45:21;7.37;;;3.13;;
21215;SDS011;10765;50.954;5.322;2023-05-29T06:47:48;7.93;;;3.00;;
21215;SDS011;10765;50.954;5.322;2023-05-29T06:50:15;8.80;;;3.40;;
21215;SDS011;10765;50.954;5.322;2023-05-29T06:52:42;10.23;;;3.00;;
21215;SDS011;10765;50.954;5.322;2023-05-29T06:55:10;7.80;;;3.03;;
21215;SDS011;10765;50.954;5.322;2023-05-29T06:57:37;9.20;;;3.40;;
21215;SDS011;10765;50.954;5.322;2023-05-29T07:00:04;11.47;;;3.70;;
21215;SDS011;10765;50.954;5.322;2023-05-29T07:02:32;8.60;;;3.30;;
21215;SDS011;10765;50.954;5.322;2023-05-29T07:04:59;9.73;;;3.27;;
21215;SDS011;10765;50.954;5.322;2023-05-29T07:07:26;7.50;;;3.30;;
21215;SDS011;10765;50.954;5.322;2023-05-29T07:09:53;8.43;;;3.03;;
21215;SDS011;10765;50.954;5.322;2023-05-29T07:12:21;9.10;;;3.30;;
21215;SDS011;10765;50.954;5.322;2023-05-29T07:14:49;9.13;;;3.30;;
21215;SDS011;10765;50.954;5.322;2023-05-29T07:17:16;10.07;;;3.53;;
21215;SDS011;10765;50.954;5.322;2023-05-29T07:19:42;7.07;;;3.20;;
21215;SDS011;10765;50.954;5.322;2023-05-29T07:22:09;10.67;;;3.53;;
21215;SDS011;10765;50.954;5.322;2023-05-29T07:24:36;7.23;;;3.00;;
21215;SDS011;10765;50.954;5.322;2023-05-29T07:27:03;10.93;;;3.60;;
21215;SDS011;10765;50.954;5.322;2023-05-29T07:29:32;7.60;;;3.00;;
21215;SDS011;10765;50.954;5.322;2023-05-29T07:31:59;7.50;;;3.70;;
21215;SDS011;10765;50.954;5.322;2023-05-29T07:34:26;6.37;;;3.07;;
21215;SDS011;10765;50.954;5.322;2023-05-29T07:36:56;8.60;;;3.43;;
21215;SDS011;10765;50.954;5.322;2023-05-29T07:39:25;10.07;;;3.37;;
21215;SDS011;10765;50.954;5.322;2023-05-29T07:41:52;7.67;;;3.03;;
21215;SDS011;10765;50.954;5.322;2023-05-29T07:44:19;7.80;;;3.27;;
21215;SDS011;10765;50.954;5.322;2023-05-29T07:46:47;8.93;;;3.30;;
21215;SDS011;10765;50.954;5.322;2023-05-29T07:49:14;8.33;;;3.33;;
21215;SDS011;10765;50.954;5.322;2023-05-29T07:51:41;8.53;;;3.20;;
21215;SDS011;10765;50.954;5.322;2023-05-29T07:54:08;6.93;;;3.20;;
21215;SDS011;10765;50.954;5.322;2023-05-29T07:56:35;9.53;;;3.87;;
21215;SDS011;10765;50.954;5.322;2023-05-29T07:59:02;8.03;;;3.00;;
21215;SDS011;10765;50.954;5.322;2023-05-29T08:01:29;7.87;;;3.20;;
21215;SDS011;10765;50.954;5.322;2023-05-29T08:03:57;7.17;;;3.07;;
21215;SDS011;10765;50.954;5.322;2023-05-29T08:06:24;8.17;;;3.50;;
21215;SDS011;10765;50.954;5.322;2023-05-29T08:08:51;7.60;;;3.10;;
21215;SDS011;10765;50.954;5.322;2023-05-29T08:11:18;8.77;;;3.67;;
21215;SDS011;10765;50.954;5.322;2023-05-29T08:13:45;6.13;;;3.00;;
21215;SDS011;10765;50.954;5.322;2023-05-29T08:16:12;7.93;;;3.57;;
21215;SDS011;10765;50.954;5.322;2023-05-29T08:18:41;10.73;;;3.23;;
21215;SDS011;10765;50.954;5.322;2023-05-29T08:21:10;9.03;;;3.70;;
21215;SDS011;10765;50.954;5.322;2023-05-29T08:23:37;10.27;;;3.30;;
21215;SDS011;10765;50.954;5.322;2023-05-29T08:26:04;8.87;;;3.13;;
21215;SDS011;10765;50.954;5.322;2023-05-29T08:28:31;8.23;;;3.20;;
21215;SDS011;10765;50.954;5.322;2023-05-29T08:30:58;9.07;;;3.57;;
21215;SDS011;10765;50.954;5.322;2023-05-29T08:33:26;10.90;;;3.90;;
21215;SDS011;10765;50.954;5.322;2023-05-29T08:35:53;7.87;;;3.27;;
21215;SDS011;10765;50.954;5.322;2023-05-29T08:38:21;9.50;;;3.47;;
21215;SDS011;10765;50.954;5.322;2023-05-29T08:40:50;6.70;;;3.50;;
21215;SDS011;10765;50.954;5.322;2023-05-29T08:43:18;7.77;;;3.70;;
21215;SDS011;10765;50.954;5.322;2023-05-29T08:45:50;6.67;;;3.20;;
21215;SDS011;10765;50.954;5.322;2023-05-29T08:48:20;8.17;;;3.53;;
21215;SDS011;10765;50.954;5.322;2023-05-29T08:50:49;9.60;;;3.37;;
21215;SDS011;10765;50.954;5.322;2023-05-29T08:53:21;9.03;;;3.67;;
21215;SDS011;10765;50.954;5.322;2023-05-29T08:55:48;8.80;;;3.80;;
21215;SDS011;10765;50.954;5.322;2023-05-29T08:58:17;9.23;;;3.60;;
21215;SDS011;10765;50.954;5.322;2023-05-29T09:00:46;8.73;;;3.57;;
21215;SDS011;10765;50.954;5.322;2023-05-29T09:03:13;9.53;;;3.40;;
21215;SDS011;10765;50.954;5.322;2023-05-29T09:05:40;8.20;;;3.57;;
21215;SDS011;10765;50.954;5.322;2023-05-29T09:08:08;8.57;;;3.77;;
21215;SDS011;10765;50.954;5.322;2023-05-29T09:10:38;9.63;;;3.90;;
21215;SDS011;10765;50.954;5.322;2023-05-29T09:13:06;8.57;;;3.50;;
21215;SDS011;10765;50.954;5.322;2023-05-29T09:15:35;7.80;;;3.23;;
21215;SDS011;10765;50.954;5.322;2023-05-29T09:18:03;10.40;;;3.70;;
21215;SDS011;10765;50.954;5.322;2023-05-29T09:20:31;7.00;;;3.50;;
21215;SDS011;10765;50.954;5.322;2023-05-29T09:22:58;9.27;;;3.80;;
21215;SDS011;10765;50.954;5.322;2023-05-29T09:25:27;8.70;;;3.20;;
21215;SDS011;10765;50.954;5.322;2023-05-29T09:27:59;9.37;;;3.53;;
21215;SDS011;10765;50.954;5.322;2023-05-29T09:30:32;11.77;;;3.27;;
21215;SDS011;10765;50.954;5.322;2023-05-29T09:33:01;6.90;;;3.10;;
21215;SDS011;10765;50.954;5.322;2023-05-29T09:35:33;8.93;;;3.53;;
21215;SDS011;10765;50.954;5.322;2023-05-29T09:38:00;7.67;;;3.40;;
21215;SDS011;10765;50.954;5.322;2023-05-29T09:40:29;8.23;;;3.43;;
21215;SDS011;10765;50.954;5.322;2023-05-29T09:43:02;7.53;;;3.47;;
21215;SDS011;10765;50.954;5.322;2023-05-29T09:45:32;11.43;;;3.87;;
21215;SDS011;10765;50.954;5.322;2023-05-29T09:48:02;10.07;;;3.53;;
21215;SDS011;10765;50.954;5.322;2023-05-29T09:50:29;8.27;;;3.73;;
21215;SDS011;10765;50.954;5.322;2023-05-29T09:52:58;11.50;;;3.60;;
21215;SDS011;10765;50.954;5.322;2023-05-29T09:55:27;8.67;;;3.50;;
21215;SDS011;10765;50.954;5.322;2023-05-29T09:57:57;9.23;;;3.67;;
21215;SDS011;10765;50.954;5.322;2023-05-29T10:00:26;7.93;;;3.33;;
21215;SDS011;10765;50.954;5.322;2023-05-29T10:02:54;10.27;;;3.27;;
21215;SDS011;10765;50.954;5.322;2023-05-29T10:05:20;7.07;;;3.57;;
21215;SDS011;10765;50.954;5.322;2023-05-29T10:07:49;6.83;;;3.10;;
21215;SDS011;10765;50.954;5.322;2023-05-29T10:10:18;10.43;;;3.43;;
21215;SDS011;10765;50.954;5.322;2023-05-29T10:12:47;7.27;;;3.10;;
21215;SDS011;10765;50.954;5.322;2023-05-29T10:15:15;7.97;;;3.23;;
21215;SDS011;10765;50.954;5.322;2023-05-29T10:17:49;8.53;;;3.40;;
21215;SDS011;10765;50.954;5.322;2023-05-29T10:20:17;9.63;;;3.17;;
21215;SDS011;10765;50.954;5.322;2023-05-29T10:22:47;11.90;;;3.10;;
21215;SDS011;10765;50.954;5.322;2023-05-29T10:25:16;10.63;;;3.50;;
21215;SDS011;10765;50.954;5.322;2023-05-29T10:27:44;8.40;;;3.27;;
21215;SDS011;10765;50.954;5.322;2023-05-29T10:30:13;9.50;;;2.90;;
21215;SDS011;10765;50.954;5.322;2023-05-29T10:33:00;5.67;;;3.03;;
21215;SDS011;10765;50.954;5.322;2023-05-29T10:35:50;5.40;;;3.10;;
21215;SDS011;10765;50.954;5.322;2023-05-29T10:38:19;13.17;;;3.40;;
21215;SDS011;10765;50.954;5.322;2023-05-29T10:40:47;8.17;;;3.40;;
21215;SDS011;10765;50.954;5.322;2023-05-29T10:43:29;9.50;;;3.37;;
21215;SDS011;10765;50.954;5.322;2023-05-29T10:45:58;8.77;;;3.37;;
21215;SDS011;10765;50.954;5.322;2023-05-29T10:48:45;8.23;;;3.10;;
21215;SDS011;10765;50.954;5.322;2023-05-29T10:51:26;8.60;;;3.23;;
21215;SDS011;10765;50.954;5.322;2023-05-29T10:53:54;6.63;;;2.90;;
21215;SDS011;10765;50.954;5.322;2023-05-29T10:56:21;7.93;;;3.23;;
21215;SDS011;10765;50.954;5.322;2023-05-29T10:58:55;6.57;;;2.40;;
21215;SDS011;10765;50.954;5.322;2023-05-29T11:01:26;7.03;;;2.77;;
21215;SDS011;10765;50.954;5.322;2023-05-29T11:04:02;7.70;;;2.67;;
21215;SDS011;10765;50.954;5.322;2023-05-29T11:06:53;7.37;;;2.80;;
21215;SDS011;10765;50.954;5.322;2023-05-29T11:09:27;6.17;;;2.77;;
21215;SDS011;10765;50.954;5.322;2023-05-29T11:14:53;7.67;;;2.83;;
21215;SDS011;10765;50.954;5.322;2023-05-29T11:17:31;7.80;;;2.83;;
21215;SDS011;10765;50.954;5.322;2023-05-29T11:20:02;9.70;;;3.10;;
21215;SDS011;10765;50.954;5.322;2023-05-29T11:22:34;7.53;;;2.87;;
21215;SDS011;10765;50.954;5.322;2023-05-29T11:25:26;7.00;;;2.93;;
21215;SDS011;10765;50.954;5.322;2023-05-29T11:27:53;7.07;;;2.80;;
21215;SDS011;10765;50.954;5.322;2023-05-29T11:30:21;12.43;;;3.50;;
21215;SDS011;10765;50.954;5.322;2023-05-29T11:32:48;10.47;;;3.40;;
21215;SDS011;10765;50.954;5.322;2023-05-29T11:35:21;7.43;;;3.27;;
21215;SDS011;10765;50.954;5.322;2023-05-29T11:37:48;6.03;;;2.67;;
21215;SDS011;10765;50.954;5.322;2023-05-29T11:40:15;6.17;;;2.43;;
21215;SDS011;10765;50.954;5.322;2023-05-29T11:42:43;6.40;;;2.60;;
21215;SDS011;10765;50.954;5.322;2023-05-29T11:45:14;7.37;;;3.17;;
21215;SDS011;10765;50.954;5.322;2023-05-29T11:47:52;9.33;;;3.50;;
21215;SDS011;10765;50.954;5.322;2023-05-29T11:50:21;6.20;;;2.93;;
21215;SDS011;10765;50.954;5.322;2023-05-29T11:52:49;6.87;;;3.20;;
21215;SDS011;10765;50.954;5.322;2023-05-29T11:55:16;8.77;;;3.17;;
21215;SDS011;10765;50.954;5.322;2023-05-29T11:57:44;7.33;;;2.93;;
21215;SDS011;10765;50.954;5.322;2023-05-29T12:00:12;6.80;;;2.70;;
21215;SDS011;10765;50.954;5.322;2023-05-29T12:02:40;8.40;;;2.80;;
21215;SDS011;10765;50.954;5.322;2023-05-29T12:05:08;8.20;;;3.07;;
21215;SDS011;10765;50.954;5.322;2023-05-29T12:07:46;9.90;;;3.13;;
21215;SDS011;10765;50.954;5.322;2023-05-29T12:10:15;8.07;;;2.93;;
21215;SDS011;10765;50.954;5.322;2023-05-29T12:12:46;5.23;;;2.53;;
21215;SDS011;10765;50.954;5.322;2023-05-29T12:15:14;5.40;;;2.67;;
21215;SDS011;10765;50.954;5.322;2023-05-29T12:17:43;6.43;;;2.90;;
21215;SDS011;10765;50.954;5.322;2023-05-29T12:20:10;8.67;;;3.57;;
21215;SDS011;10765;50.954;5.322;2023-05-29T12:22:40;6.13;;;2.90;;
21215;SDS011;10765;50.954;5.322;2023-05-29T12:25:09;6.53;;;3.07;;
21215;SDS011;10765;50.954;5.322;2023-05-29T12:27:37;8.80;;;3.07;;
21215;SDS011;10765;50.954;5.322;2023-05-29T12:30:08;9.50;;;3.20;;
21215;SDS011;10765;50.954;5.322;2023-05-29T12:32:37;8.13;;;3.03;;
21215;SDS011;10765;50.954;5.322;2023-05-29T12:35:15;8.60;;;2.97;;
21215;SDS011;10765;50.954;5.322;2023-05-29T12:37:46;7.90;;;3.30;;
21215;SDS011;10765;50.954;5.322;2023-05-29T12:40:14;8.70;;;3.20;;
21215;SDS011;10765;50.954;5.322;2023-05-29T12:42:42;7.20;;;2.97;;
21215;SDS011;10765;50.954;5.322;2023-05-29T12:45:09;6.90;;;3.07;;
21215;SDS011;10765;50.954;5.322;2023-05-29T12:47:37;6.87;;;2.70;;
21215;SDS011;10765;50.954;5.322;2023-05-29T12:50:04;9.27;;;3.37;;
21215;SDS011;10765;50.954;5.322;2023-05-29T12:52:48;10.57;;;3.43;;
21215;SDS011;10765;50.954;5.322;2023-05-29T12:55:22;7.20;;;3.07;;
21215;SDS011;10765;50.954;5.322;2023-05-29T12:57:49;5.67;;;2.60;;
21215;SDS011;10765;50.954;5.322;2023-05-29T13:00:17;7.63;;;3.13;;
21215;SDS011;10765;50.954;5.322;2023-05-29T13:02:45;7.77;;;2.90;;
21215;SDS011;10765;50.954;5.322;2023-05-29T13:05:12;9.40;;;3.17;;
21215;SDS011;10765;50.954;5.322;2023-05-29T13:07:40;8.80;;;2.87;;
21215;SDS011;10765;50.954;5.322;2023-05-29T13:10:09;9.27;;;3.30;;
21215;SDS011;10765;50.954;5.322;2023-05-29T13:12:36;7.30;;;3.10;;
21215;SDS011;10765;50.954;5.322;2023-05-29T13:15:03;10.33;;;3.27;;
21215;SDS011;10765;50.954;5.322;2023-05-29T13:17:31;7.83;;;2.80;;
21215;SDS011;10765;50.954;5.322;2023-05-29T13:19:59;7.20;;;2.77;;
21215;SDS011;10765;50.954;5.322;2023-05-29T13:22:26;7.17;;;3.23;;
21215;SDS011;10765;50.954;5.322;2023-05-29T13:24:56;8.63;;;2.87;;
21215;SDS011;10765;50.954;5.322;2023-05-29T13:27:25;7.20;;;2.83;;
21215;SDS011;10765;50.954;5.322;2023-05-29T13:29:53;7.50;;;3.00;;
21215;SDS011;10765;50.954;5.322;2023-05-29T13:32:20;5.83;;;2.90;;
21215;SDS011;10765;50.954;5.322;2023-05-29T13:34:47;5.57;;;2.80;;
21215;SDS011;10765;50.954;5.322;2023-05-29T13:37:14;6.50;;;2.70;;
21215;SDS011;10765;50.954;5.322;2023-05-29T13:39:41;8.43;;;2.90;;
21215;SDS011;10765;50.954;5.322;2023-05-29T13:42:08;8.30;;;3.03;;
21215;SDS011;10765;50.954;5.322;2023-05-29T13:44:36;10.40;;;3.03;;
21215;SDS011;10765;50.954;5.322;2023-05-29T13:47:04;7.00;;;3.17;;
21215;SDS011;10765;50.954;5.322;2023-05-29T13:49:32;5.73;;;2.73;;
21215;SDS011;10765;50.954;5.322;2023-05-29T13:51:59;7.43;;;3.17;;
21215;SDS011;10765;50.954;5.322;2023-05-29T13:54:26;5.40;;;2.80;;
21215;SDS011;10765;50.954;5.322;2023-05-29T13:56:54;6.43;;;2.70;;
21215;SDS011;10765;50.954;5.322;2023-05-29T13:59:22;7.27;;;2.90;;
21215;SDS011;10765;50.954;5.322;2023-05-29T14:01:51;9.93;;;3.10;;
21215;SDS011;10765;50.954;5.322;2023-05-29T14:04:17;6.50;;;3.00;;
21215;SDS011;10765;50.954;5.322;2023-05-29T14:06:44;8.07;;;3.40;;
21215;SDS011;10765;50.954;5.322;2023-05-29T14:09:11;9.13;;;2.90;;
21215;SDS011;10765;50.954;5.322;2023-05-29T14:11:38;6.43;;;2.97;;
21215;SDS011;10765;50.954;5.322;2023-05-29T14:14:05;6.30;;;2.83;;
21215;SDS011;10765;50.954;5.322;2023-05-29T14:16:32;6.00;;;2.83;;
21215;SDS011;10765;50.954;5.322;2023-05-29T14:19:01;10.50;;;3.13;;
21215;SDS011;10765;50.954;5.322;2023-05-29T14:21:28;7.60;;;2.90;;
21215;SDS011;10765;50.954;5.322;2023-05-29T14:23:55;8.13;;;2.70;;
21215;SDS011;10765;50.954;5.322;2023-05-29T14:26:22;8.27;;;2.80;;
21215;SDS011;10765;50.954;5.322;2023-05-29T14:28:49;7.50;;;3.00;;
21215;SDS011;10765;50.954;5.322;2023-05-29T14:31:16;7.87;;;3.30;;
21215;SDS011;10765;50.954;5.322;2023-05-29T14:33:43;9.13;;;3.17;;
21215;SDS011;10765;50.954;5.322;2023-05-29T14:36:11;8.30;;;2.80;;
21215;SDS011;10765;50.954;5.322;2023-05-29T14:38:38;7.37;;;2.93;;
21215;SDS011;10765;50.954;5.322;2023-05-29T14:41:05;10.40;;;2.90;;
21215;SDS011;10765;50.954;5.322;2023-05-29T14:43:32;8.23;;;2.83;;
21215;SDS011;10765;50.954;5.322;2023-05-29T14:45:59;8.60;;;2.87;;
21215;SDS011;10765;50.954;5.322;2023-05-29T14:48:26;7.60;;;3.10;;
21215;SDS011;10765;50.954;5.322;2023-05-29T14:50:53;7.03;;;3.10;;
21215;SDS011;10765;50.954;5.322;2023-05-29T14:53:21;8.80;;;3.17;;